Time;durP1;ratioP1;P1;durP2;ratioP2;P2;SDS_P1;SDS_P2;PMS_P1;PMS_P2;Temp;Humidity;BMP_temperature;BMP_pressure;BME280_temperature;BME280_humidity;BME280_pressure;Samples;Min_cycle;Max_cycle;Signal;HPM_P1;HPM_P2
2023/08/05 00:00:00;;;;;;;1.08;0.73;;;;;;;15.79;89.33;101812.06;4997219;28;97952;-27
2023/08/05 00:02:25;;;;;;;1.40;0.90;;;;;;;15.83;89.70;101819.06;4997923;28;96468;-27
2023/08/05 00:04:51;;;;;;;1.10;0.70;;;;;;;15.80;89.53;101805.59;4998097;28;96648;-27
2023/08/05 00:07:16;;;;;;;0.95;0.70;;;;;;;15.84;89.21;101809.88;4997941;28;96973;-27
2023/08/05 00:09:42;;;;;;;2.25;0.95;;;;;;;15.83;89.50;101810.88;4997213;28;97411;-27
2023/08/05 00:12:07;;;;;;;1.77;1.20;;;;;;;15.87;89.55;101820.59;4997580;28;97900;-26
2023/08/05 00:14:34;;;;;;;3.50;1.10;;;;;;;15.88;89.43;101815.03;4997986;28;96494;-26
2023/08/05 00:16:59;;;;;;;2.75;1.50;;;;;;;15.90;89.25;101813.09;4996483;28;96969;-27
2023/08/05 00:19:25;;;;;;;5.10;2.20;;;;;;;15.89;88.95;101800.38;4997328;28;98000;-27
2023/08/05 00:21:50;;;;;;;5.38;2.00;;;;;;;15.95;88.84;101801.84;4997483;28;97747;-26
2023/08/05 00:24:15;;;;;;;4.40;2.17;;;;;;;15.95;89.29;101801.84;4997932;28;96520;-27
2023/08/05 00:26:41;;;;;;;4.45;2.22;;;;;;;15.97;89.30;101796.25;4998095;28;96851;-28
2023/08/05 00:29:06;;;;;;;6.28;2.25;;;;;;;15.96;89.92;101802.69;4997633;28;97350;-26
2023/08/05 00:31:31;;;;;;;5.72;2.20;;;;;;;15.97;90.28;101805.34;4997241;28;97349;-26
2023/08/05 00:33:57;;;;;;;4.30;2.15;;;;;;;15.95;89.55;101793.63;4995772;28;96612;-27
2023/08/05 00:36:22;;;;;;;6.75;1.83;;;;;;;16.00;89.29;101793.31;4997447;28;96807;-26
2023/08/05 00:38:47;;;;;;;4.30;1.75;;;;;;;15.98;89.55;101790.69;4996135;28;97047;-26
2023/08/05 00:41:13;;;;;;;3.72;1.45;;;;;;;16.00;89.77;101786.00;4995565;28;100671;-26
2023/08/05 00:43:38;;;;;;;2.47;1.30;;;;;;;15.97;89.39;101775.28;4997747;28;96545;-27
2023/08/05 00:46:04;;;;;;;1.83;1.20;;;;;;;15.99;88.85;101765.09;4995913;28;97030;-27
2023/08/05 00:48:29;;;;;;;1.50;1.05;;;;;;;16.05;88.63;101777.47;4995644;28;101351;-27
2023/08/05 00:50:55;;;;;;;1.52;1.20;;;;;;;16.03;88.82;101766.63;4996832;28;99548;-26
2023/08/05 00:53:23;;;;;;;1.08;0.88;;;;;;;16.06;89.09;101774.63;4997513;28;96578;-27
2023/08/05 00:55:51;;;;;;;1.27;0.98;;;;;;;16.07;89.03;101770.03;4996049;28;96825;-27
2023/08/05 00:58:16;;;;;;;1.65;1.08;;;;;;;16.07;89.83;101770.91;4994840;28;101431;-27
2023/08/05 01:00:42;;;;;;;2.90;1.17;;;;;;;16.04;89.72;101767.50;4996559;28;97824;-27
2023/08/05 01:03:07;;;;;;;2.92;1.13;;;;;;;16.05;89.88;101769.28;4997548;28;96587;-26
2023/08/05 01:05:35;;;;;;;1.48;1.00;;;;;;;16.09;89.96;101777.16;4997577;28;96793;-26
2023/08/05 01:08:02;;;;;;;3.97;1.35;;;;;;;16.10;89.52;101778.88;4996877;28;97426;-26
2023/08/05 01:10:27;;;;;;;5.38;1.58;;;;;;;16.11;89.12;101782.50;4995172;28;100984;-27
2023/08/05 01:12:53;;;;;;;3.33;1.73;;;;;;;16.10;89.74;101781.63;4997366;28;96631;-26
2023/08/05 01:15:18;;;;;;;2.30;1.25;;;;;;;16.12;89.38;101776.06;4995854;28;96969;-26
2023/08/05 01:17:43;;;;;;;3.05;1.23;;;;;;;16.12;89.62;101773.34;4996669;28;97924;-27
2023/08/05 01:20:11;;;;;;;2.97;1.20;;;;;;;16.07;89.66;101759.97;4996321;28;99190;-26
2023/08/05 01:22:41;;;;;;;1.67;1.02;;;;;;;16.08;89.80;101769.06;4995046;28;96613;-26
2023/08/05 01:25:19;;;;;;;1.55;1.05;;;;;;;16.11;89.52;101768.81;4995652;28;96802;-26
2023/08/05 01:27:44;;;;;;;1.15;0.75;;;;;;;16.10;89.99;101767.97;4994855;28;101542;-27
2023/08/05 01:30:10;;;;;;;1.20;0.80;;;;;;;16.09;90.26;101765.34;4996626;28;97438;-28
2023/08/05 01:32:37;;;;;;;1.65;0.93;;;;;;;16.12;90.46;101773.34;4996965;28;96527;-26
2023/08/05 01:35:05;;;;;;;0.80;0.75;;;;;;;16.11;89.67;101761.53;4995604;28;96830;-27
2023/08/05 01:37:31;;;;;;;0.95;0.88;;;;;;;16.10;90.00;101756.16;4994180;28;102306;-28
2023/08/05 01:39:56;;;;;;;1.52;1.05;;;;;;;16.13;90.94;101755.94;4996762;28;97817;-27
2023/08/05 01:42:21;;;;;;;1.75;0.98;;;;;;;16.10;90.56;101762.50;4996653;28;96759;-26
2023/08/05 01:44:47;;;;;;;1.70;0.85;;;;;;;16.06;90.38;101755.47;4996905;28;96683;-26
2023/08/05 01:47:12;;;;;;;1.33;0.90;;;;;;;16.06;90.02;101754.63;4995630;28;99232;-27
2023/08/05 01:49:37;;;;;;;1.85;0.80;;;;;;;16.12;90.42;101768.72;4996364;28;97382;-26
2023/08/05 01:52:03;;;;;;;1.10;0.77;;;;;;;16.05;89.82;101736.47;4996839;28;96650;-27
2023/08/05 01:54:29;;;;;;;1.73;0.63;;;;;;;16.08;89.77;101748.06;4996526;28;97121;-27
2023/08/05 01:56:54;;;;;;;1.30;0.95;;;;;;;16.08;90.38;101742.59;4995906;28;97862;-26
2023/08/05 01:59:19;;;;;;;1.15;0.82;;;;;;;16.13;89.54;101739.53;4996554;28;97220;-27
2023/08/05 02:01:46;;;;;;;0.70;0.70;;;;;;;16.16;89.81;101738.44;4996720;28;96889;-27
2023/08/05 02:04:12;;;;;;;2.33;0.80;;;;;;;16.16;89.67;101738.44;4998855;28;96900;-26
2023/08/05 02:06:38;;;;;;;1.02;0.80;;;;;;;16.16;89.72;101738.44;4997953;28;100866;-26
2023/08/05 02:09:04;;;;;;;3.45;1.02;;;;;;;16.14;89.90;101736.69;4999547;28;97802;-28
2023/08/05 02:11:29;;;;;;;0.73;0.50;;;;;;;16.16;90.02;101739.34;4999153;28;96754;-27
2023/08/05 02:13:55;;;;;;;1.33;1.00;;;;;;;16.12;89.60;101735.94;4999790;28;96820;-26
2023/08/05 02:16:20;;;;;;;2.97;0.60;;;;;;;16.10;89.75;101734.28;4999413;28;96777;-26
2023/08/05 02:18:45;;;;;;;1.52;0.82;;;;;;;16.07;89.76;101729.06;4999480;28;97272;-27
2023/08/05 02:21:11;;;;;;;0.70;0.70;;;;;;;16.04;89.69;101735.63;4999798;28;96693;-27
2023/08/05 02:23:37;;;;;;;2.58;0.80;;;;;;;16.05;89.74;101737.34;4999774;28;96826;-26
2023/08/05 02:26:03;;;;;;;1.60;0.98;;;;;;;16.08;90.30;101736.25;4997518;28;101207;-27
2023/08/05 02:28:28;;;;;;;1.45;0.80;;;;;;;16.07;90.27;101729.91;4999588;28;97247;-28
2023/08/05 02:30:53;;;;;;;0.77;0.55;;;;;;;16.05;89.97;101714.63;4999518;28;96709;-27
2023/08/05 02:33:19;;;;;;;1.25;0.80;;;;;;;16.04;90.34;101713.75;4999511;28;96764;-27
2023/08/05 02:35:46;;;;;;;0.68;0.60;;;;;;;16.01;90.27;101708.47;4998582;28;97388;-27
2023/08/05 02:38:11;;;;;;;0.77;0.68;;;;;;;15.98;90.38;101694.16;4998074;28;99280;-28
2023/08/05 02:40:36;;;;;;;1.60;0.85;;;;;;;15.97;90.43;101690.56;4999045;28;96642;-26
2023/08/05 02:43:02;;;;;;;1.15;0.70;;;;;;;15.97;90.60;101697.88;4999450;28;96797;-27
2023/08/05 02:45:27;;;;;;;1.73;0.88;;;;;;;15.89;90.24;101685.63;4998960;28;97928;-27
2023/08/05 02:47:52;;;;;;;0.75;0.70;;;;;;;15.91;90.69;101693.72;4998928;28;97764;-27
2023/08/05 02:50:18;;;;;;;1.73;0.70;;;;;;;15.88;90.15;101686.63;4999361;28;96431;-27
2023/08/05 02:52:43;;;;;;;1.02;0.65;;;;;;;15.87;90.48;101683.97;4999567;28;96845;-27
2023/08/05 02:55:08;;;;;;;1.08;0.80;;;;;;;15.82;89.95;101681.56;4998863;28;97357;-26
2023/08/05 02:57:34;;;;;;;1.70;0.55;;;;;;;15.87;90.06;101684.88;4998623;28;97781;-26
2023/08/05 02:59:59;;;;;;;1.30;0.85;;;;;;;15.83;90.04;101666.94;4998462;28;96554;-26
2023/08/05 03:02:24;;;;;;;0.88;0.73;;;;;;;15.86;90.44;101665.84;4999079;28;96782;-27
2023/08/05 03:04:50;;;;;;;1.60;0.63;;;;;;;15.85;90.53;101651.31;4998579;28;97317;-27
2023/08/05 03:07:15;;;;;;;1.08;0.73;;;;;;;15.86;90.68;101644.00;4998683;28;97813;-26
2023/08/05 03:09:41;;;;;;;1.15;1.00;;;;;;;15.82;90.40;101653.38;4999107;28;96484;-26
2023/08/05 03:12:07;;;;;;;2.92;0.88;;;;;;;15.81;90.99;101655.25;4998888;28;96792;-26
2023/08/05 03:14:34;;;;;;;1.40;1.08;;;;;;;15.82;90.68;101659.72;4996693;28;102189;-26
2023/08/05 03:16:59;;;;;;;2.05;1.08;;;;;;;15.75;90.57;101647.47;4997228;28;101416;-27
2023/08/05 03:19:24;;;;;;;1.63;0.90;;;;;;;15.72;91.22;101647.69;4999240;28;96561;-26
2023/08/05 03:21:50;;;;;;;1.73;1.02;;;;;;;15.78;91.33;101652.75;4998463;28;96810;-26
2023/08/05 03:24:15;;;;;;;3.38;1.10;;;;;;;15.78;90.87;101647.28;4997477;28;99549;-27
2023/08/05 03:26:40;;;;;;;2.78;1.05;;;;;;;15.76;90.86;101649.25;4998152;28;97243;-27
2023/08/05 03:29:06;;;;;;;1.40;0.95;;;;;;;15.73;91.15;101652.19;4998795;28;96469;-27
2023/08/05 03:31:31;;;;;;;1.77;0.98;;;;;;;15.73;90.60;101649.47;4998788;28;96779;-27
2023/08/05 03:33:56;;;;;;;1.38;1.13;;;;;;;15.73;91.40;101643.09;4998057;28;98080;-26
2023/08/05 03:36:22;;;;;;;1.65;1.17;;;;;;;15.71;91.97;101644.09;4998135;28;97764;-26
2023/08/05 03:38:47;;;;;;;2.63;1.50;;;;;;;15.66;91.42;101638.06;4997724;28;96626;-27
2023/08/05 03:41:13;;;;;;;1.92;1.30;;;;;;;15.68;91.55;101641.56;4998829;28;96858;-27
2023/08/05 03:43:38;;;;;;;1.35;1.17;;;;;;;15.70;91.97;101638.72;4998016;28;97901;-27
2023/08/05 03:46:03;;;;;;;3.28;1.20;;;;;;;15.68;91.74;101632.47;4998031;28;97777;-27
2023/08/05 03:48:29;;;;;;;1.92;1.45;;;;;;;15.63;91.81;101615.53;4998104;28;96457;-27
2023/08/05 03:50:54;;;;;;;2.55;1.45;;;;;;;15.68;91.40;101618.81;4998427;28;96780;-27
2023/08/05 03:53:20;;;;;;;3.13;1.48;;;;;;;15.70;91.68;101606.81;4998164;28;97319;-26
2023/08/05 03:55:46;;;;;;;6.43;1.70;;;;;;;15.71;91.43;101614.06;4996010;28;101251;-27
2023/08/05 03:58:12;;;;;;;2.78;1.50;;;;;;;15.64;91.89;101593.59;4998069;28;96674;-26
2023/08/05 04:00:43;;;;;;;3.30;1.50;;;;;;;15.69;92.00;101605.06;4997972;28;96902;-27
2023/08/05 04:03:09;;;;;;;2.22;1.45;;;;;;;15.70;91.79;101606.81;4997686;28;98068;-27
2023/08/05 04:05:34;;;;;;;4.57;1.90;;;;;;;15.70;91.69;101612.28;4997909;28;97851;-26
2023/08/05 04:08:00;;;;;;;3.00;1.83;;;;;;;15.67;92.40;101598.81;4998017;28;96556;-26
2023/08/05 04:10:25;;;;;;;3.90;1.98;;;;;;;15.61;91.39;101582.88;4998126;28;96800;-27
2023/08/05 04:12:50;;;;;;;3.42;2.15;;;;;;;15.62;91.84;101589.22;4996973;28;97868;-26
2023/08/05 04:15:18;;;;;;;4.55;2.28;;;;;;;15.66;91.94;101588.91;4997585;28;97872;-27
2023/08/05 04:17:44;;;;;;;8.18;3.00;;;;;;;15.66;91.55;101588.91;4996407;28;96553;-26
2023/08/05 04:20:12;;;;;;;4.28;2.05;;;;;;;15.59;91.76;101578.50;4996506;28;96990;-27
2023/08/05 04:22:38;;;;;;;3.60;1.77;;;;;;;15.59;91.84;101582.13;4997277;28;97945;-27
2023/08/05 04:25:05;;;;;;;2.20;1.38;;;;;;;15.51;92.21;101573.59;4996862;28;97298;-27
2023/08/05 04:27:30;;;;;;;2.35;1.45;;;;;;;15.55;91.94;101575.13;4996341;28;96587;-26
2023/08/05 04:29:57;;;;;;;2.30;1.38;;;;;;;15.53;92.75;101578.94;4998298;28;96465;-28
2023/08/05 04:32:22;;;;;;;3.35;1.40;;;;;;;15.47;92.51;101563.88;4995674;28;101182;-28
2023/08/05 04:34:48;;;;;;;1.52;1.23;;;;;;;15.48;93.62;101577.41;4997283;28;97936;-26
2023/08/05 04:37:18;;;;;;;2.40;0.98;;;;;;;15.48;92.68;101580.13;4996939;28;96878;-26
2023/08/05 04:39:44;;;;;;;2.03;1.23;;;;;;;15.44;92.80;101573.13;4997732;28;96559;-27
2023/08/05 04:42:10;;;;;;;1.98;1.17;;;;;;;15.49;93.22;101581.00;4995548;28;100824;-27
2023/08/05 04:44:39;;;;;;;2.25;1.52;;;;;;;15.41;93.78;101564.31;4996852;28;99170;-26
2023/08/05 04:47:05;;;;;;;2.15;1.08;;;;;;;15.39;94.37;101566.25;4996132;28;96645;-26
2023/08/05 04:49:31;;;;;;;1.77;1.17;;;;;;;15.44;92.98;101561.34;4996204;28;96826;-27
2023/08/05 04:51:56;;;;;;;1.83;1.40;;;;;;;15.40;93.80;101557.09;4996425;28;99283;-27
2023/08/05 04:54:22;;;;;;;1.73;1.25;;;;;;;15.34;94.05;101554.78;4997249;28;97232;-26
2023/08/05 04:56:48;;;;;;;1.67;1.25;;;;;;;15.37;93.21;101565.50;4995962;28;96629;-26
2023/08/05 04:59:13;;;;;;;2.20;1.23;;;;;;;15.36;93.35;101558.28;4997236;28;96783;-26
2023/08/05 05:01:38;;;;;;;1.13;1.02;;;;;;;15.34;93.71;101547.47;4996099;28;97900;-27
2023/08/05 05:04:04;;;;;;;2.05;1.30;;;;;;;15.42;93.33;101555.13;4997219;28;97247;-26
2023/08/05 05:06:29;;;;;;;1.63;1.20;;;;;;;15.41;94.03;101545.19;4996917;28;96974;-26
2023/08/05 05:08:55;;;;;;;4.32;1.27;;;;;;;15.41;93.60;101548.78;4997378;28;96844;-26
2023/08/05 05:11:20;;;;;;;1.83;1.20;;;;;;;15.36;93.85;101539.19;4996882;28;98139;-27
2023/08/05 05:13:50;;;;;;;1.45;0.88;;;;;;;15.39;94.58;101542.56;4996454;28;99616;-26
2023/08/05 05:16:17;;;;;;;1.45;1.17;;;;;;;15.37;94.15;101539.06;4995678;28;96847;-27
2023/08/05 05:18:42;;;;;;;1.70;1.15;;;;;;;15.37;94.51;101543.66;4997446;28;96894;-27
2023/08/05 05:21:07;;;;;;;1.27;1.08;;;;;;;15.41;94.48;101537.00;4996402;28;97980;-26
2023/08/05 05:23:33;;;;;;;2.25;1.20;;;;;;;15.46;94.46;101540.28;4996749;28;97752;-26
2023/08/05 05:25:59;;;;;;;1.85;1.45;;;;;;;15.46;94.09;101534.81;4996755;28;96560;-26
2023/08/05 05:28:24;;;;;;;1.58;1.00;;;;;;;15.41;95.22;101526.94;4996839;28;96812;-26
2023/08/05 05:30:49;;;;;;;2.60;1.50;;;;;;;15.43;94.57;101521.38;4996533;28;97975;-27
2023/08/05 05:33:15;;;;;;;2.50;1.40;;;;;;;15.50;93.79;101531.75;4996323;28;99102;-26
2023/08/05 05:35:40;;;;;;;1.98;1.30;;;;;;;15.49;94.07;101515.47;4996914;28;96665;-26
2023/08/05 05:38:05;;;;;;;3.55;1.55;;;;;;;15.50;94.74;101523.56;4998298;28;96872;-26
2023/08/05 05:40:31;;;;;;;2.40;1.65;;;;;;;15.49;94.65;101515.47;5000000;28;98068;-26
2023/08/05 05:42:56;;;;;;;2.15;1.48;;;;;;;15.50;95.18;101515.38;5000290;28;97787;-26
2023/08/05 05:45:21;;;;;;;3.53;2.15;;;;;;;15.58;94.56;101513.94;5000377;28;96685;-27
2023/08/05 05:47:47;;;;;;;2.67;1.63;;;;;;;15.58;93.88;101501.16;5000365;28;96786;-26
2023/08/05 05:50:12;;;;;;;3.20;1.98;;;;;;;15.56;94.74;101503.13;4998692;28;99265;-27
2023/08/05 05:52:38;;;;;;;3.80;1.92;;;;;;;15.55;93.95;101501.38;4999812;28;97818;-26
2023/08/05 05:55:04;;;;;;;2.42;1.50;;;;;;;15.62;94.76;101523.69;5000265;28;96493;-26
2023/08/05 05:57:29;;;;;;;5.00;1.30;;;;;;;15.63;94.20;101514.47;4998560;28;96841;-27
2023/08/05 05:59:55;;;;;;;2.70;1.63;;;;;;;15.64;94.01;101519.84;4999691;28;97933;-26
2023/08/05 06:02:21;;;;;;;2.35;1.50;;;;;;;15.62;94.01;101515.47;4999350;28;98665;-26
2023/08/05 06:04:47;;;;;;;2.22;1.27;;;;;;;15.63;94.43;101525.41;4999678;28;96722;-26
2023/08/05 06:07:13;;;;;;;1.58;1.02;;;;;;;15.61;94.53;101522.81;5000401;28;96764;-27
2023/08/05 06:09:38;;;;;;;2.50;1.45;;;;;;;15.58;94.27;101512.09;4999251;28;98772;-26
2023/08/05 06:12:04;;;;;;;2.97;1.27;;;;;;;15.64;94.06;101516.25;4999487;28;97281;-27
2023/08/05 06:14:29;;;;;;;4.85;1.33;;;;;;;15.67;94.11;101513.28;4997957;28;96572;-28
2023/08/05 06:16:55;;;;;;;3.30;1.20;;;;;;;15.71;94.32;101509.38;4999835;28;97088;-27
2023/08/05 06:19:20;;;;;;;1.70;1.15;;;;;;;15.72;93.55;101505.66;4999016;28;99834;-27
2023/08/05 06:21:46;;;;;;;2.55;1.48;;;;;;;15.69;93.19;101492.19;4999216;28;97344;-26
2023/08/05 06:24:11;;;;;;;3.17;1.90;;;;;;;15.71;92.89;101493.88;4999550;28;96504;-28
2023/08/05 06:26:38;;;;;;;3.20;1.52;;;;;;;15.73;92.83;101496.50;4999690;28;96833;-27
2023/08/05 06:29:03;;;;;;;2.13;1.38;;;;;;;15.76;92.71;101499.00;4997711;28;100847;-27
2023/08/05 06:31:28;;;;;;;3.38;1.77;;;;;;;15.81;92.99;101498.66;4999411;28;99357;-27
2023/08/05 06:33:54;;;;;;;4.00;1.75;;;;;;;15.84;92.53;101498.44;4999239;28;96893;-26
2023/08/05 06:36:19;;;;;;;3.13;1.58;;;;;;;15.80;92.24;101485.97;4999671;28;96818;-28
2023/08/05 06:38:45;;;;;;;4.40;1.83;;;;;;;15.88;91.81;101486.31;4998009;28;97890;-26
2023/08/05 06:41:10;;;;;;;4.25;2.22;;;;;;;15.86;91.91;101475.47;4998945;28;97383;-26
2023/08/05 06:43:35;;;;;;;4.95;2.47;;;;;;;15.83;91.91;101469.38;4999171;28;96499;-26
2023/08/05 06:46:01;;;;;;;4.68;2.60;;;;;;;15.87;91.56;101473.59;4999707;28;96797;-27
2023/08/05 06:48:26;;;;;;;3.42;1.95;;;;;;;15.98;92.08;101481.88;4998085;28;99562;-27
2023/08/05 06:50:51;;;;;;;3.22;2.13;;;;;;;16.12;91.42;101481.72;4998687;28;97955;-26
2023/08/05 06:53:17;;;;;;;3.33;2.28;;;;;;;16.20;90.99;101462.00;4999027;28;96502;-27
2023/08/05 06:55:42;;;;;;;4.22;2.20;;;;;;;16.19;90.72;101459.41;4999602;28;96731;-27
2023/08/05 06:58:08;;;;;;;4.18;2.63;;;;;;;16.28;89.79;101456.84;4998810;28;97895;-26
2023/08/05 07:00:33;;;;;;;4.72;2.53;;;;;;;16.41;89.78;101470.47;4998592;28;97774;-27
2023/08/05 07:03:01;;;;;;;3.13;2.10;;;;;;;16.46;89.57;101462.75;4998302;28;96614;-27
2023/08/05 07:05:26;;;;;;;3.67;2.28;;;;;;;16.47;89.50;101460.91;4997619;28;96894;-27
2023/08/05 07:07:52;;;;;;;6.65;2.13;;;;;;;16.37;89.58;101449.78;4997019;28;101211;-27
2023/08/05 07:10:17;;;;;;;3.30;1.85;;;;;;;16.33;89.39;101445.56;4998269;28;99499;-27
2023/08/05 07:12:42;;;;;;;2.90;2.05;;;;;;;16.35;89.69;101454.50;4997614;28;96517;-27
2023/08/05 07:15:08;;;;;;;3.03;2.25;;;;;;;16.35;89.48;101451.78;4998915;28;96854;-27
2023/08/05 07:17:34;;;;;;;3.90;2.25;;;;;;;16.42;89.30;101450.34;4998314;28;97473;-27
2023/08/05 07:19:59;;;;;;;3.63;2.35;;;;;;;16.45;89.46;101447.38;4998540;28;99726;-26
2023/08/05 07:22:26;;;;;;;4.25;2.70;;;;;;;16.49;88.95;101437.94;4998449;28;96483;-26
2023/08/05 07:24:54;;;;;;;5.30;1.92;;;;;;;16.60;89.33;101426.16;4997334;28;96962;-26
2023/08/05 07:27:20;;;;;;;5.63;2.25;;;;;;;16.66;88.65;101433.00;4996301;28;101195;-26
2023/08/05 07:29:45;;;;;;;4.20;2.60;;;;;;;16.64;87.71;101424.94;4996520;28;101505;-26
2023/08/05 07:32:11;;;;;;;3.83;2.15;;;;;;;16.70;87.61;101429.03;4998768;28;96496;-27
2023/08/05 07:34:36;;;;;;;3.22;1.95;;;;;;;16.66;87.42;101420.22;4998817;28;96779;-26
2023/08/05 07:37:02;;;;;;;3.15;1.67;;;;;;;16.60;87.29;101409.75;4997982;28;97874;-26
2023/08/05 07:39:33;;;;;;;3.38;1.75;;;;;;;16.74;87.78;101416.88;4997812;28;97795;-26
2023/08/05 07:42:05;;;;;;;3.30;1.95;;;;;;;16.80;86.91;101416.41;4997055;28;96652;-27
2023/08/05 07:44:31;;;;;;;1.73;1.25;;;;;;;16.86;86.21;101426.00;4998563;28;96532;-27
2023/08/05 07:46:58;;;;;;;4.93;1.50;;;;;;;16.87;85.46;101419.53;4996202;28;101477;-26
2023/08/05 07:49:24;;;;;;;2.55;1.42;;;;;;;16.96;85.46;101403.25;4996374;28;100991;-26
2023/08/05 07:51:51;;;;;;;3.28;1.42;;;;;;;17.22;85.23;101400.31;4996285;28;96631;-26
2023/08/05 07:54:17;;;;;;;2.72;1.63;;;;;;;17.59;83.31;101386.31;4998199;28;96826;-27
2023/08/05 07:56:43;;;;;;;2.60;1.80;;;;;;;17.96;82.75;101386.91;4997759;28;97068;-27
2023/08/05 07:59:08;;;;;;;2.28;1.48;;;;;;;18.02;81.48;101380.91;4997151;28;99327;-27
2023/08/05 08:01:34;;;;;;;2.75;1.52;;;;;;;18.00;81.10;101384.78;4996711;28;96686;-26
2023/08/05 08:04:02;;;;;;;2.30;1.45;;;;;;;17.84;80.03;101379.72;4998154;28;96809;-26
2023/08/05 08:06:28;;;;;;;2.35;1.42;;;;;;;17.71;81.44;101377.09;4997424;28;99698;-27
2023/08/05 08:08:54;;;;;;;3.67;1.60;;;;;;;17.61;81.24;101374.25;4996562;28;100777;-27
2023/08/05 08:11:19;;;;;;;3.30;1.58;;;;;;;17.56;80.98;101376.47;4997766;28;96642;-27
2023/08/05 08:13:45;;;;;;;3.13;1.55;;;;;;;17.68;81.81;101381.97;4997972;28;96564;-26
2023/08/05 08:16:10;;;;;;;2.92;2.00;;;;;;;17.59;81.83;101359.81;4996811;28;97852;-26
2023/08/05 08:18:36;;;;;;;4.90;1.77;;;;;;;17.61;81.94;101368.78;4997466;28;97859;-27
2023/08/05 08:21:03;;;;;;;4.50;1.77;;;;;;;17.59;81.81;101364.41;4996311;28;96592;-28
2023/08/05 08:23:29;;;;;;;4.57;1.75;;;;;;;17.54;81.80;101366.66;4996529;28;96880;-26
2023/08/05 08:25:58;;;;;;;4.45;2.08;;;;;;;17.54;81.91;101353.84;4997335;28;97433;-28
2023/08/05 08:28:24;;;;;;;3.35;1.92;;;;;;;17.61;82.57;101345.97;4997119;28;99422;-26
2023/08/05 08:30:57;;;;;;;4.30;2.20;;;;;;;17.65;82.21;101349.34;4997808;28;96649;-27
2023/08/05 08:33:25;;;;;;;3.38;1.90;;;;;;;17.59;82.31;101337.00;4996725;28;96768;-26
2023/08/05 08:35:51;;;;;;;3.60;2.20;;;;;;;17.57;82.17;101348.13;4995706;28;101389;-26
2023/08/05 08:38:20;;;;;;;3.50;2.17;;;;;;;17.63;82.42;101330.28;4996360;28;97317;-26
2023/08/05 08:40:47;;;;;;;3.10;1.63;;;;;;;17.72;82.01;101335.00;4995674;28;96743;-26
2023/08/05 08:43:16;;;;;;;3.85;2.38;;;;;;;17.70;81.67;101330.66;4995824;28;96824;-28
2023/08/05 08:45:42;;;;;;;4.32;2.10;;;;;;;17.68;81.38;101333.50;4996806;28;99334;-28
2023/08/05 08:48:09;;;;;;;3.67;2.33;;;;;;;17.64;81.81;101318.34;4995523;28;100798;-27
2023/08/05 08:50:36;;;;;;;3.03;2.28;;;;;;;17.62;81.65;101312.13;4995954;28;96560;-26
2023/08/05 08:53:01;;;;;;;3.83;2.08;;;;;;;17.63;82.07;101316.59;4995989;28;96873;-26
2023/08/05 08:55:29;;;;;;;3.95;1.95;;;;;;;17.61;82.02;101314.00;4996928;28;97570;-27
2023/08/05 08:57:55;;;;;;;3.00;1.85;;;;;;;17.63;81.63;101316.59;4995881;28;100947;-26
2023/08/05 09:00:21;;;;;;;3.58;2.10;;;;;;;17.56;82.17;101299.78;4997102;28;96834;-27
2023/08/05 09:02:47;;;;;;;6.03;1.92;;;;;;;17.56;82.60;101299.78;4995826;28;96920;-27
2023/08/05 09:05:13;;;;;;;5.78;2.33;;;;;;;17.62;82.26;101307.50;4994831;28;100936;-26
2023/08/05 09:07:38;;;;;;;4.60;2.10;;;;;;;17.62;81.67;101301.16;4996659;28;99221;-26
2023/08/05 09:10:05;;;;;;;2.60;1.80;;;;;;;17.56;82.33;101301.66;4997343;28;96642;-26
2023/08/05 09:12:31;;;;;;;3.55;2.30;;;;;;;17.59;82.71;101309.59;4998506;28;96781;-27
2023/08/05 09:14:57;;;;;;;3.25;1.92;;;;;;;17.53;82.15;101293.72;4998794;28;99204;-26
2023/08/05 09:17:23;;;;;;;2.17;1.58;;;;;;;17.51;81.66;101295.69;5000187;28;99169;-26
2023/08/05 09:19:48;;;;;;;6.65;1.90;;;;;;;17.47;82.23;101286.00;4998188;28;96438;-27
2023/08/05 09:22:14;;;;;;;3.42;2.20;;;;;;;17.41;81.88;101279.16;4998492;28;96814;-27
2023/08/05 09:24:39;;;;;;;3.40;2.05;;;;;;;17.45;81.70;101271.56;4997662;28;97540;-26
2023/08/05 09:27:05;;;;;;;3.13;1.77;;;;;;;17.47;81.79;101266.81;4997450;28;97817;-27
2023/08/05 09:29:30;;;;;;;2.78;1.77;;;;;;;17.55;81.98;101265.19;4997236;28;96543;-27
2023/08/05 09:32:03;;;;;;;3.53;2.30;;;;;;;17.66;81.72;101258.78;4997705;28;96829;-27
2023/08/05 09:34:34;;;;;;;4.65;1.90;;;;;;;17.65;81.25;101259.78;4996080;28;100822;-27
2023/08/05 09:37:00;;;;;;;3.50;1.65;;;;;;;17.66;81.83;101257.91;4995887;28;100795;-28
2023/08/05 09:39:30;;;;;;;3.92;2.10;;;;;;;17.68;80.90;101265.00;4995509;28;96868;-33
2023/08/05 09:41:56;;;;;;;2.33;1.55;;;;;;;17.64;81.52;101269.03;4997307;28;96827;-27
2023/08/05 09:44:21;;;;;;;4.28;1.85;;;;;;;17.58;81.11;101258.56;4997245;28;99832;-28
2023/08/05 09:46:50;;;;;;;3.50;1.67;;;;;;;17.61;81.70;101255.56;4997576;28;97732;-26
2023/08/05 09:49:17;;;;;;;2.78;1.65;;;;;;;17.55;81.32;101251.50;4996190;28;96609;-27
2023/08/05 09:51:46;;;;;;;1.92;1.20;;;;;;;17.47;77.48;101250.38;4997389;28;96798;-27
2023/08/05 09:54:16;;;;;;;1.17;0.77;;;;;;;17.49;78.55;101241.03;4995118;28;100888;-27
2023/08/05 09:56:43;;;;;;;1.63;0.93;;;;;;;17.50;77.54;101247.41;4995703;28;100818;-27
2023/08/05 09:59:09;;;;;;;1.15;0.80;;;;;;;17.55;77.76;101232.31;4995900;28;96629;-27
2023/08/05 10:01:36;;;;;;;0.82;0.70;;;;;;;17.79;75.18;101236.69;4995727;28;96856;-27
2023/08/05 10:04:02;;;;;;;2.33;1.08;;;;;;;18.07;75.17;101221.50;4995628;28;100953;-28
2023/08/05 10:06:29;;;;;;;0.98;0.85;;;;;;;18.04;75.01;101208.03;4995290;28;100048;-27
2023/08/05 10:08:55;;;;;;;1.23;0.88;;;;;;;18.08;75.06;101212.28;4997117;28;96565;-27
2023/08/05 10:11:22;;;;;;;2.28;0.82;;;;;;;18.04;74.89;101222.66;4997523;28;96779;-27
2023/08/05 10:13:52;;;;;;;4.00;1.10;;;;;;;18.00;74.43;101223.06;4993516;28;101101;-30
2023/08/05 10:16:19;;;;;;;1.20;0.70;;;;;;;17.95;74.40;101220.72;4994737;28;99406;-28
2023/08/05 10:18:45;;;;;;;1.05;0.68;;;;;;;17.81;74.82;101210.94;4994413;28;96737;-31
2023/08/05 10:21:11;;;;;;;2.97;0.80;;;;;;;17.88;75.22;101213.16;4994233;28;96969;-27
2023/08/05 10:23:37;;;;;;;2.85;0.95;;;;;;;17.99;74.34;101218.56;4995517;28;96872;-27
2023/08/05 10:26:04;;;;;;;2.50;0.90;;;;;;;18.15;74.30;101199.75;4994586;28;100764;-27
2023/08/05 10:28:35;;;;;;;2.85;0.90;;;;;;;18.36;74.45;101202.47;4995013;28;97093;-27
2023/08/05 10:31:05;;;;;;;0.80;0.80;;;;;;;18.39;72.61;101206.81;4996411;28;96912;-27
2023/08/05 10:33:31;;;;;;;1.65;0.88;;;;;;;18.28;72.58;101204.16;4994565;28;97491;-32
2023/08/05 10:36:02;;;;;;;1.00;0.90;;;;;;;18.20;72.84;101211.19;4992013;28;100813;-30
2023/08/05 10:38:30;;;;;;;0.98;0.85;;;;;;;18.06;73.21;101203.31;4993283;28;97093;-32
2023/08/05 10:41:02;;;;;;;1.98;1.05;;;;;;;17.89;72.42;101203.91;4992649;28;96801;-28
2023/08/05 10:43:30;;;;;;;1.88;1.10;;;;;;;17.80;72.75;101211.94;4992488;28;99794;-30
2023/08/05 10:45:59;;;;;;;2.00;0.88;;;;;;;17.73;72.86;101202.47;4992726;28;99787;-30
2023/08/05 10:48:29;;;;;;;2.95;1.33;;;;;;;17.70;73.13;101208.22;4992096;28;97157;-30
2023/08/05 10:50:56;;;;;;;2.00;1.27;;;;;;;17.59;73.24;101211.00;4995444;28;96637;-27
2023/08/05 10:53:21;;;;;;;2.20;1.00;;;;;;;17.56;73.40;101203.03;4993271;28;101476;-28
2023/08/05 10:55:54;;;;;;;1.40;1.00;;;;;;;17.44;72.34;101201.34;4996169;28;97310;-27
2023/08/05 10:58:34;;;;;;;2.00;1.20;;;;;;;17.37;72.76;101207.34;4993911;28;96680;-27
2023/08/05 11:01:00;;;;;;;4.45;1.63;;;;;;;17.34;72.62;101214.97;4992554;28;96839;-28
2023/08/05 11:03:30;;;;;;;1.65;1.08;;;;;;;17.28;74.08;101219.09;4993760;28;97941;-28
2023/08/05 11:06:05;;;;;;;1.85;1.08;;;;;;;17.20;72.55;101207.91;4994105;28;99323;-28
2023/08/05 11:08:33;;;;;;;1.75;1.10;;;;;;;17.16;73.54;101214.63;4994120;28;97001;-28
2023/08/05 11:11:06;;;;;;;1.63;1.05;;;;;;;17.09;73.89;101202.44;4992623;28;97025;-27
2023/08/05 11:13:45;;;;;;;2.53;1.33;;;;;;;17.08;74.69;101197.97;4993233;28;100762;-27
2023/08/05 11:16:11;;;;;;;4.45;1.48;;;;;;;16.99;74.25;101185.91;4995983;28;97916;-27
2023/08/05 11:18:38;;;;;;;4.07;1.48;;;;;;;17.00;73.73;101186.81;4996133;28;96567;-27